createdAt,value
2022-10-19T00:01:47.681Z,100256.31
2022-10-19T00:05:49.018Z,100251.09
2022-10-19T00:09:50.308Z,100255.44
2022-10-19T00:13:54.388Z,100263.28
2022-10-19T00:17:55.901Z,100267.66
2022-10-19T00:21:57.446Z,100261.56
2022-10-19T00:25:59.328Z,100258.94
2022-10-19T00:30:01.507Z,100262.41
2022-10-19T00:34:02.949Z,100263.28
2022-10-19T00:38:04.633Z,100258.03
2022-10-19T00:42:05.879Z,100249.31
2022-10-19T00:46:13.035Z,100251.09
2022-10-19T00:50:14.821Z,100250.22
2022-10-19T00:54:16.586Z,100242.38
2022-10-19T00:58:17.868Z,100236.31
2022-10-19T01:02:19.744Z,100239.81
2022-10-19T01:06:21.133Z,100242.47
2022-10-19T01:10:25.844Z,100235.59
2022-10-19T01:14:45.943Z,100249.59
2022-10-19T01:19:17.987Z,100247.91
2022-10-19T01:23:38.279Z,100241.84
2022-10-19T01:27:39.564Z,100243.59
2022-10-19T01:31:43.584Z,100241.91
2022-10-19T01:35:48.061Z,100239.28
2022-10-19T01:39:59.576Z,100238.44
2022-10-19T01:44:06.946Z,100223.66
2022-10-19T01:48:14.420Z,100226.34
2022-10-19T01:52:18.107Z,100225.53
2022-10-19T01:56:21.660Z,100217.78
2022-10-19T02:00:23.940Z,100202.19
2022-10-19T02:04:25.682Z,100207.41
2022-10-19T02:08:30.552Z,100197.88
2022-10-19T02:12:32.564Z,100199.66
2022-10-19T02:16:40.652Z,100185.81
2022-10-19T02:20:41.966Z,100193.66
2022-10-19T02:24:43.280Z,100191.94
2022-10-19T02:28:44.529Z,100188.47
2022-10-19T02:32:47.065Z,100178.88
2022-10-19T02:36:48.651Z,100173.69
2022-10-19T02:41:05.657Z,100163.25
2022-10-19T02:45:13.680Z,100158.91
2022-10-19T02:49:15.626Z,100152.81
2022-10-19T02:53:16.856Z,100144.94
2022-10-19T02:57:19.786Z,100144.03
2022-10-19T03:01:21.332Z,100139.69
2022-10-19T03:05:22.616Z,100131.00
2022-10-19T03:09:23.871Z,100131.06
2022-10-19T03:13:25.550Z,100139.75
2022-10-19T03:17:26.925Z,100140.66
2022-10-19T03:21:28.232Z,100136.28
2022-10-19T03:25:29.473Z,100135.41
2022-10-19T03:29:30.740Z,100137.97
2022-10-19T03:33:32.074Z,100136.22
2022-10-19T03:37:33.686Z,100139.69
2022-10-19T03:41:36.144Z,100136.19
2022-10-19T03:45:37.465Z,100139.63
2022-10-19T03:49:40.276Z,100137.88
2022-10-19T03:53:42.183Z,100139.59
2022-10-19T03:57:43.463Z,100136.09
2022-10-19T04:01:45.688Z,100134.34
2022-10-19T04:05:46.928Z,100141.28
2022-10-19T04:09:48.245Z,100141.25
2022-10-19T04:13:50.479Z,100148.22
2022-10-19T04:17:52.085Z,100145.59
2022-10-19T04:21:53.320Z,100137.78
2022-10-19T04:26:01.756Z,100139.50
2022-10-19T04:30:03.279Z,100136.88
2022-10-19T04:34:04.749Z,100141.22
2022-10-19T04:38:06.028Z,100124.66
2022-10-19T04:42:07.717Z,100132.47
2022-10-19T04:46:14.144Z,100131.59
2022-10-19T04:50:15.477Z,100134.22
2022-10-19T04:54:16.782Z,100127.22
2022-10-19T04:58:18.088Z,100129.81
2022-10-19T05:02:19.315Z,100136.78
2022-10-19T05:06:21.180Z,100133.28
2022-10-19T05:10:22.491Z,100130.69
2022-10-19T05:14:23.929Z,100123.72
2022-10-19T05:18:25.316Z,100121.91
2022-10-19T05:22:27.092Z,100108.88
2022-10-19T05:26:29.042Z,100106.25
2022-10-19T05:30:30.636Z,100102.72
2022-10-19T05:34:31.906Z,100105.31
2022-10-19T05:38:33.233Z,100097.50
2022-10-19T05:42:34.845Z,100103.63
2022-10-19T05:46:36.944Z,100107.94
2022-10-19T05:50:38.192Z,100106.22
2022-10-19T05:54:39.697Z,100114.91
2022-10-19T05:58:43.942Z,100105.34
2022-10-19T06:02:45.304Z,100101.88
2022-10-19T06:06:46.678Z,100114.91
2022-10-19T06:10:48.633Z,100114.94
2022-10-19T06:14:52.914Z,100119.28
2022-10-19T06:18:55.473Z,100115.81
2022-10-19T06:22:56.703Z,100111.47
2022-10-19T06:26:57.998Z,100108.88
2022-10-19T06:30:59.398Z,100104.50
2022-10-19T06:35:00.737Z,100112.34
2022-10-19T06:39:02.360Z,100114.06
2022-10-19T06:43:03.674Z,100120.16
2022-10-19T06:47:04.997Z,100116.66
2022-10-19T06:51:09.608Z,100114.88
2022-10-19T06:55:10.910Z,100113.94
2022-10-19T06:59:14.723Z,100135.69
2022-10-19T07:03:16.243Z,100122.56
2022-10-19T07:07:17.637Z,100122.53
2022-10-19T07:11:19.966Z,100123.38
2022-10-19T07:15:21.313Z,100120.69
2022-10-19T07:19:25.600Z,100111.88
2022-10-19T07:23:28.431Z,100109.06
2022-10-19T07:27:31.865Z,100093.97
2022-10-19T07:31:36.680Z,100100.59
2022-10-19T07:35:37.965Z,100098.81
2022-10-19T07:39:39.677Z,100102.19
2022-10-19T07:43:43.841Z,100103.03
2022-10-19T07:47:47.967Z,100103.00
2022-10-19T07:51:55.416Z,100101.19
2022-10-19T07:56:02.463Z,100101.09
2022-10-19T08:00:04.022Z,100102.75
2022-10-19T08:08:27.133Z,100107.16
2022-10-19T08:12:28.461Z,100104.53
2022-10-19T08:16:33.909Z,100105.38
2022-10-19T08:20:35.351Z,100107.09
2022-10-19T08:24:36.697Z,100100.03
2022-10-19T08:28:38.081Z,100095.56
2022-10-19T08:32:39.688Z,100097.25
2022-10-19T08:40:44.868Z,100094.50
2022-10-19T08:45:08.080Z,100095.41
2022-10-19T08:49:19.212Z,100078.88
2022-10-19T08:53:37.361Z,100068.44
2022-10-19T08:57:54.224Z,100068.44
2022-10-19T09:01:58.135Z,100059.72
2022-10-19T09:06:14.700Z,100064.97
2022-10-19T09:10:16.765Z,100070.25
2022-10-19T09:14:25.573Z,100065.00
2022-10-19T09:18:28.608Z,100058.03
2022-10-19T09:22:33.188Z,100058.91
2022-10-19T09:26:46.010Z,100058.94
2022-10-19T09:30:51.313Z,100065.09
2022-10-19T09:35:02.470Z,100071.94
2022-10-19T09:39:04.245Z,100075.44
2022-10-19T09:43:19.412Z,100067.56
2022-10-19T09:47:33.278Z,100057.00
2022-10-19T09:51:44.957Z,100049.03
2022-10-19T09:55:53.134Z,100058.38
2022-10-19T09:59:54.864Z,100059.13
2022-10-19T10:04:05.210Z,100066.88
2022-10-19T10:08:14.767Z,100055.41
2022-10-19T10:12:16.189Z,100036.06
2022-10-19T10:16:18.732Z,100050.66
2022-10-19T10:20:27.628Z,100054.88
2022-10-19T10:24:30.340Z,100048.53
2022-10-19T10:28:32.238Z,100057.13
2022-10-19T10:32:37.127Z,100055.28
2022-10-19T10:36:38.544Z,100041.16
2022-10-19T10:40:40.599Z,100044.59
2022-10-19T10:44:46.589Z,100037.47
2022-10-19T10:49:02.892Z,100031.91
2022-10-19T10:53:05.675Z,100025.47
2022-10-19T10:57:15.631Z,100018.84
2022-10-19T11:01:21.876Z,100011.41
2022-10-19T11:05:23.427Z,99999.59
2022-10-19T11:09:36.429Z,100000.63
2022-10-19T11:13:43.448Z,99974.72
2022-10-19T11:17:57.145Z,99969.88
2022-10-19T11:22:04.514Z,99960.66
2022-10-19T11:26:24.719Z,99956.66
2022-10-19T11:30:26.485Z,99952.41
2022-10-19T11:34:27.753Z,99947.19
2022-10-19T11:38:36.440Z,99939.34
2022-10-19T11:42:40.753Z,99927.19
2022-10-19T11:46:51.064Z,99923.91
2022-10-19T11:51:21.086Z,99928.56
2022-10-19T11:55:27.151Z,99917.13
2022-10-19T11:59:46.472Z,99904.38
2022-10-19T12:04:00.144Z,99895.91
2022-10-19T12:08:13.756Z,99889.53
2022-10-19T12:12:15.113Z,99877.28
2022-10-19T12:16:17.216Z,99867.66
2022-10-19T12:20:26.785Z,99870.97
2022-10-19T12:24:29.767Z,99866.47
2022-10-19T12:28:32.491Z,99858.31
2022-10-19T12:32:39.249Z,99854.66
2022-10-19T12:36:50.360Z,99841.41
2022-10-19T12:40:51.620Z,99840.41
2022-10-19T12:45:02.205Z,99832.47
2022-10-19T12:49:29.832Z,99819.19
2022-10-19T12:53:36.330Z,99814.78
2022-10-19T12:57:39.403Z,99804.00
2022-10-19T13:01:44.584Z,99809.97
2022-10-19T13:05:55.573Z,99808.03
2022-10-19T13:10:01.764Z,99797.28
2022-10-19T13:14:25.820Z,99794.59
2022-10-19T13:18:45.972Z,99787.59
2022-10-19T13:22:48.062Z,99783.53
2022-10-19T13:27:09.905Z,99786.44
2022-10-19T13:31:30.835Z,99785.75
2022-10-19T13:35:32.190Z,99779.72
2022-10-19T13:39:38.656Z,99773.50
2022-10-19T13:43:58.881Z,99776.06
2022-10-19T13:48:11.386Z,99779.63
2022-10-19T13:52:51.302Z,99779.66
2022-10-19T13:57:06.330Z,99762.22
2022-10-19T14:01:10.804Z,99752.69
2022-10-19T14:05:34.601Z,99740.28
2022-10-19T14:09:54.789Z,99745.31
2022-10-19T14:14:11.346Z,99749.53
2022-10-19T14:18:23.736Z,99757.50
2022-10-19T14:22:34.639Z,99745.44
2022-10-19T14:26:36.257Z,99742.97
2022-10-19T14:30:37.760Z,99743.16
2022-10-19T14:34:40.517Z,99748.09
2022-10-19T14:38:45.748Z,99747.72
2022-10-19T14:42:47.522Z,99741.88
2022-10-19T14:46:48.772Z,99737.53
2022-10-19T14:50:53.179Z,99740.31
2022-10-19T14:54:56.231Z,99742.41
2022-10-19T14:59:02.269Z,99739.28
2022-10-19T15:03:06.523Z,99739.69
2022-10-19T15:07:37.429Z,99737.56
2022-10-19T15:11:40.332Z,99732.63
2022-10-19T15:15:41.849Z,99729.28
2022-10-19T15:19:43.140Z,99733.94
2022-10-19T15:23:45.528Z,99727.16
2022-10-19T15:27:49.905Z,99735.28
2022-10-19T15:31:56.327Z,99728.56
2022-10-19T15:36:05.563Z,99728.84
2022-10-19T15:40:13.371Z,99721.34
2022-10-19T15:44:39.914Z,99713.84
2022-10-19T15:48:51.143Z,99708.97
2022-10-19T15:52:55.022Z,99711.88
2022-10-19T15:56:57.622Z,99710.34
2022-10-19T16:00:58.916Z,99695.72
2022-10-19T16:05:00.308Z,99694.31
2022-10-19T16:09:02.032Z,99684.88
2022-10-19T16:13:03.677Z,99680.66
2022-10-19T16:17:04.992Z,99683.50
2022-10-19T16:21:06.508Z,99679.25
2022-10-19T16:25:07.820Z,99673.41
2022-10-19T16:29:09.194Z,99671.81
2022-10-19T16:33:10.603Z,99673.78
2022-10-19T16:37:11.938Z,99672.25
2022-10-19T16:41:13.370Z,99673.31
2022-10-19T16:45:15.017Z,99662.19
2022-10-19T16:49:16.445Z,99667.59
2022-10-19T16:53:17.767Z,99674.69
2022-10-19T16:57:19.080Z,99678.31
2022-10-19T17:01:20.980Z,99672.41
2022-10-19T17:05:22.328Z,99678.56
2022-10-19T17:13:47.831Z,99664.13
2022-10-19T17:17:49.272Z,99676.47
2022-10-19T17:21:50.584Z,99678.38
2022-10-19T17:25:52.401Z,99667.13
2022-10-19T17:29:53.668Z,99675.06
2022-10-19T17:33:55.077Z,99676.97
2022-10-19T17:37:56.385Z,99670.06
2022-10-19T17:42:01.324Z,99671.03
2022-10-19T17:46:05.339Z,99658.19
2022-10-19T17:50:07.080Z,99655.66
2022-10-19T17:54:09.565Z,99666.22
2022-10-19T17:58:10.837Z,99661.03
2022-10-19T18:02:12.252Z,99664.56
2022-10-19T18:06:15.750Z,99651.53
2022-10-19T18:10:17.128Z,99656.81
2022-10-19T18:14:18.806Z,99648.97
2022-10-19T18:18:20.128Z,99651.63
2022-10-19T18:22:21.898Z,99642.91
2022-10-19T18:26:24.433Z,99646.50
2022-10-19T18:30:26.096Z,99636.09
2022-10-19T18:34:27.800Z,99630.88
2022-10-19T18:38:29.202Z,99638.75
2022-10-19T18:42:30.506Z,99630.91
2022-10-19T18:46:33.349Z,99622.28
2022-10-19T18:50:34.618Z,99622.38
2022-10-19T18:54:37.447Z,99616.31
2022-10-19T18:58:39.092Z,99625.06
2022-10-19T19:02:46.742Z,99628.59
2022-10-19T19:06:48.650Z,99619.91
2022-10-19T19:10:49.976Z,99622.59
2022-10-19T19:14:51.269Z,99621.72
2022-10-19T19:18:53.736Z,99613.03
2022-10-19T19:22:55.025Z,99620.91
2022-10-19T19:26:57.933Z,99620.97
2022-10-19T19:30:59.540Z,99610.56
2022-10-19T19:35:00.872Z,99611.44
2022-10-19T19:39:02.297Z,99601.03
2022-10-19T19:43:03.653Z,99601.06
2022-10-19T19:47:05.734Z,99593.25
2022-10-19T19:51:11.288Z,99597.66
2022-10-19T19:55:12.640Z,99590.75
2022-10-19T19:59:14.335Z,99585.56
2022-10-19T20:03:16.330Z,99590.81
2022-10-19T20:07:17.753Z,99591.72
2022-10-19T20:11:19.242Z,99583.88
2022-10-19T20:15:20.569Z,99585.69
2022-10-19T20:19:22.189Z,99591.81
2022-10-19T20:23:23.630Z,99580.56
2022-10-19T20:27:25.828Z,99572.81
2022-10-19T20:35:29.722Z,99569.41
2022-10-19T20:39:31.064Z,99575.53
2022-10-19T20:43:32.713Z,99572.97
2022-10-19T20:47:34.081Z,99570.44
2022-10-19T20:51:38.925Z,99573.97
2022-10-19T20:55:40.388Z,99564.41
2022-10-19T20:59:43.979Z,99567.91
2022-10-19T21:03:47.184Z,99556.66
2022-10-19T21:07:48.545Z,99548.03
2022-10-19T21:11:50.942Z,99542.03
2022-10-19T21:15:52.277Z,99541.19
2022-10-19T21:19:57.232Z,99534.28
2022-10-19T21:24:04.518Z,99535.19
2022-10-19T21:28:05.814Z,99530.88
2022-10-19T21:32:07.220Z,99552.66
2022-10-19T21:36:08.853Z,99547.50
2022-10-19T21:40:10.367Z,99548.38
2022-10-19T21:44:11.852Z,99548.41
2022-10-19T21:48:13.162Z,99533.59
2022-10-19T21:52:16.207Z,99524.06
2022-10-19T21:56:17.676Z,99523.22
2022-10-19T22:00:19.013Z,99520.63
2022-10-19T22:04:20.780Z,99519.78
2022-10-19T22:08:23.665Z,99521.59
2022-10-19T22:12:25.041Z,99523.34
2022-10-19T22:16:27.252Z,99515.53
2022-10-19T22:20:28.846Z,99503.38
2022-10-19T22:24:30.285Z,99497.31
2022-10-19T22:28:31.545Z,99492.13
2022-10-19T22:32:33.132Z,99478.28
2022-10-19T22:36:35.292Z,99471.38
2022-10-19T22:40:37.202Z,99472.28
2022-10-19T22:44:38.484Z,99462.72
2022-10-19T22:48:39.825Z,99456.66
2022-10-19T22:52:41.146Z,99458.41
2022-10-19T22:56:42.757Z,99461.88
2022-10-19T23:00:44.080Z,99454.97
2022-10-19T23:04:45.413Z,99461.09
2022-10-19T23:08:47.187Z,99452.41
2022-10-19T23:12:50.261Z,99444.66
2022-10-19T23:16:51.553Z,99452.50
2022-10-19T23:20:56.812Z,99456.00
2022-10-19T23:24:58.133Z,99459.50
2022-10-19T23:28:59.500Z,99448.25
2022-10-19T23:37:07.038Z,99439.59
2022-10-19T23:41:08.267Z,99437.88
2022-10-19T23:45:10.136Z,99430.91
2022-10-19T23:49:11.408Z,99421.38
2022-10-19T23:53:12.823Z,99415.28
2022-10-19T23:57:14.053Z,99401.44
